Albany Center, Vermont
Current Conditions -  °F | °C
As of 8:55 PM on Friday 31 Oct 2014 (Local Time) from KEFK Reporting Station
Scattered Clouds Scattered Clouds  
Wind Chill: 28°   Ceiling: Unl
Heat Index: 35°   Visibility: 10mi
Dew Point: 28°   Wind: 9mph
Humidity: 76%   Direction: 350°N
Pressure: 30.05"   Gusts: NA
Location:  44.8143°N, 72.284°W
Report Text: KEFK 010055Z AUTO 35008KT 10SM SCT120 02/M02 A3005 RMK AO2 T00181021
Loading
Personal Weather Stations






























Interactive Weather Map
Tropical Storm Tracking
New forecast layout! Learn more

10-Day Weather Forecast

Advertisements
Track Severe Weather on mobile